Time;durP1;ratioP1;P1;durP2;ratioP2;P2;SDS_P1;SDS_P2;PMS_P1;PMS_P2;Temp;Humidity;BMP_temperature;BMP_pressure;BME280_temperature;BME280_humidity;BME280_pressure;Samples;Min_cycle;Max_cycle;Signal;HPM_P1;HPM_P2
2023/07/19 00:00:42;;;;;;;;;;;;;;;;;;5015256;28;19921;-64
2023/07/19 00:03:08;;;;;;;;;;;;;;;;;;5014162;28;20398;-64
2023/07/19 00:05:34;;;;;;;;;;;;;;;;;;5015157;28;19926;-64
2023/07/19 00:08:02;;;;;;;;;;;;;;;;;;5015179;28;20371;-64
2023/07/19 00:10:27;;;;;;;;;;;;;;;;;;5015131;28;19964;-64
2023/07/19 00:12:53;;;;;;;;;;;;;;;;;;5015237;28;19960;-65
2023/07/19 00:15:19;;;;;;;;;;;;;;;;;;5015234;28;20349;-64
2023/07/19 00:17:45;;;;;;;;;;;;;;;;;;5015008;28;19925;-64
2023/07/19 00:20:11;;;;;;;;;;;;;;;;;;5014936;28;19930;-64
2023/07/19 00:22:37;;;;;;;;;;;;;;;;;;5013618;28;19953;-65
2023/07/19 00:25:03;;;;;;;;;;;;;;;;;;5015000;28;19921;-64
2023/07/19 00:27:29;;;;;;;;;;;;;;;;;;5013743;28;19953;-64
2023/07/19 00:29:55;;;;;;;;;;;;;;;;;;5014897;28;19969;-64
2023/07/19 00:32:21;;;;;;;;;;;;;;;;;;5014766;28;20261;-64
2023/07/19 00:34:47;;;;;;;;;;;;;;;;;;5014705;28;19921;-64
2023/07/19 00:37:13;;;;;;;;;;;;;;;;;;5014365;28;19929;-64
2023/07/19 00:39:39;;;;;;;;;;;;;;;;;;5014736;28;19976;-64
2023/07/19 00:42:05;;;;;;;;;;;;;;;;;;5014615;28;19921;-64
2023/07/19 00:44:31;;;;;;;;;;;;;;;;;;5014733;28;19929;-64
2023/07/19 00:46:57;;;;;;;;;;;;;;;;;;5014351;28;20267;-64
2023/07/19 00:49:23;;;;;;;;;;;;;;;;;;5014520;28;20021;-64
2023/07/19 00:51:49;;;;;;;;;;;;;;;;;;5014257;28;20303;-64
2023/07/19 00:54:14;;;;;;;;;;;;;;;;;;5014543;28;19921;-64
2023/07/19 00:56:40;;;;;;;;;;;;;;;;;;5014433;28;19932;-64
2023/07/19 00:59:06;;;;;;;;;;;;;;;;;;5014245;28;19930;-64
2023/07/19 01:01:32;;;;;;;;;;;;;;;;;;5014204;28;19932;-64
2023/07/19 01:03:58;;;;;;;;;;;;;;;;;;5014151;28;19928;-63
2023/07/19 01:06:24;;;;;;;;;;;;;;;;;;5012761;28;19932;-64
2023/07/19 01:08:51;;;;;;;;;;;;;;;;;;5014242;28;19944;-64
2023/07/19 01:11:16;;;;;;;;;;;;;;;;;;5013157;28;20291;-64
2023/07/19 01:13:42;;;;;;;;;;;;;;;;;;5012925;28;19925;-65
2023/07/19 01:16:08;;;;;;;;;;;;;;;;;;5013618;28;20131;-64
2023/07/19 01:18:34;;;;;;;;;;;;;;;;;;5012975;28;19926;-64
2023/07/19 01:21:00;;;;;;;;;;;;;;;;;;5013091;28;20556;-65
2023/07/19 01:23:26;;;;;;;;;;;;;;;;;;5013300;28;19976;-64
2023/07/19 01:25:53;;;;;;;;;;;;;;;;;;5011841;28;20036;-64
2023/07/19 01:28:19;;;;;;;;;;;;;;;;;;5012733;28;19929;-64
2023/07/19 01:30:45;;;;;;;;;;;;;;;;;;5012763;28;19932;-64
2023/07/19 01:33:11;;;;;;;;;;;;;;;;;;5012629;28;19921;-64
2023/07/19 01:35:37;;;;;;;;;;;;;;;;;;5012432;28;19928;-64
2023/07/19 01:38:03;;;;;;;;;;;;;;;;;;5012202;28;20021;-64
2023/07/19 01:40:29;;;;;;;;;;;;;;;;;;5012683;28;20008;-64
2023/07/19 01:42:55;;;;;;;;;;;;;;;;;;5012400;28;20008;-64
2023/07/19 01:45:21;;;;;;;;;;;;;;;;;;5012905;28;19936;-64
2023/07/19 01:47:46;;;;;;;;;;;;;;;;;;5013045;28;19925;-64
2023/07/19 01:50:12;;;;;;;;;;;;;;;;;;5013308;28;19925;-64
2023/07/19 01:52:38;;;;;;;;;;;;;;;;;;5013285;28;19921;-64
2023/07/19 01:55:04;;;;;;;;;;;;;;;;;;5013324;28;20012;-64
2023/07/19 01:57:30;;;;;;;;;;;;;;;;;;5013204;28;20013;-64
2023/07/19 01:59:56;;;;;;;;;;;;;;;;;;5012981;28;20487;-64
2023/07/19 02:02:22;;;;;;;;;;;;;;;;;;4995400;28;19976;-64
2023/07/19 02:04:48;;;;;;;;;;;;;;;;;;5012994;28;19921;-64
2023/07/19 02:07:14;;;;;;;;;;;;;;;;;;5013211;28;19926;-64
2023/07/19 02:09:40;;;;;;;;;;;;;;;;;;5012899;28;19922;-64
2023/07/19 02:12:06;;;;;;;;;;;;;;;;;;5011559;28;19921;-64
2023/07/19 02:14:32;;;;;;;;;;;;;;;;;;5012849;28;19972;-64
2023/07/19 02:16:58;;;;;;;;;;;;;;;;;;5012866;28;19979;-64
2023/07/19 02:19:24;;;;;;;;;;;;;;;;;;5012783;28;20011;-64
2023/07/19 02:21:50;;;;;;;;;;;;;;;;;;5012959;28;19932;-64
2023/07/19 02:24:16;;;;;;;;;;;;;;;;;;5012703;28;19925;-64
2023/07/19 02:26:42;;;;;;;;;;;;;;;;;;5012805;28;19922;-64
2023/07/19 02:29:08;;;;;;;;;;;;;;;;;;5012622;28;19928;-64
2023/07/19 02:31:35;;;;;;;;;;;;;;;;;;5012487;28;19925;-64
2023/07/19 02:34:01;;;;;;;;;;;;;;;;;;5012455;28;19921;-65
2023/07/19 02:36:27;;;;;;;;;;;;;;;;;;5012492;28;19929;-64
2023/07/19 02:38:53;;;;;;;;;;;;;;;;;;5012459;28;19929;-64
2023/07/19 02:41:19;;;;;;;;;;;;;;;;;;5012584;28;20012;-64
2023/07/19 02:43:45;;;;;;;;;;;;;;;;;;5012359;28;19988;-64
2023/07/19 02:46:11;;;;;;;;;;;;;;;;;;5012403;28;20390;-64
2023/07/19 02:48:37;;;;;;;;;;;;;;;;;;5012110;28;19931;-64
2023/07/19 02:51:03;;;;;;;;;;;;;;;;;;5011954;28;20287;-64
2023/07/19 02:53:29;;;;;;;;;;;;;;;;;;5012307;28;19952;-64
2023/07/19 02:55:55;;;;;;;;;;;;;;;;;;5012362;28;19933;-65
2023/07/19 02:58:21;;;;;;;;;;;;;;;;;;5012113;28;19930;-64
2023/07/19 03:00:46;;;;;;;;;;;;;;;;;;5012120;28;20352;-64
2023/07/19 03:03:12;;;;;;;;;;;;;;;;;;5010845;28;19921;-64
2023/07/19 03:05:42;;;;;;;;;;;;;;;;;;5012273;28;20287;-64
2023/07/19 03:08:08;;;;;;;;;;;;;;;;;;5012233;28;19969;-64
2023/07/19 03:10:34;;;;;;;;;;;;;;;;;;5011593;28;19984;-64
2023/07/19 03:12:59;;;;;;;;;;;;;;;;;;5011083;28;20012;-64
2023/07/19 03:15:25;;;;;;;;;;;;;;;;;;5011429;28;19929;-65
2023/07/19 03:17:51;;;;;;;;;;;;;;;;;;5011242;28;19930;-64
2023/07/19 03:20:17;;;;;;;;;;;;;;;;;;5009794;28;20429;-64
2023/07/19 03:22:43;;;;;;;;;;;;;;;;;;5011688;28;19953;-64
2023/07/19 03:25:09;;;;;;;;;;;;;;;;;;5011978;28;20288;-64
2023/07/19 03:27:35;;;;;;;;;;;;;;;;;;5011917;28;19928;-64
2023/07/19 03:30:01;;;;;;;;;;;;;;;;;;5011854;28;19975;-64
2023/07/19 03:32:29;;;;;;;;;;;;;;;;;;5012067;28;19948;-64
2023/07/19 03:34:55;;;;;;;;;;;;;;;;;;5011896;28;19921;-64
2023/07/19 03:37:21;;;;;;;;;;;;;;;;;;5010477;28;20375;-64
2023/07/19 03:39:47;;;;;;;;;;;;;;;;;;5011669;28;19925;-64
2023/07/19 03:42:13;;;;;;;;;;;;;;;;;;5011826;28;19921;-64
2023/07/19 03:44:39;;;;;;;;;;;;;;;;;;5010471;28;20593;-64
2023/07/19 03:47:05;;;;;;;;;;;;;;;;;;5011518;28;19925;-64
2023/07/19 03:49:31;;;;;;;;;;;;;;;;;;5010899;28;19921;-64
2023/07/19 03:51:56;;;;;;;;;;;;;;;;;;5011229;28;19968;-64
2023/07/19 03:54:22;;;;;;;;;;;;;;;;;;5010889;28;19925;-64
2023/07/19 03:56:48;;;;;;;;;;;;;;;;;;5010789;28;19925;-64
2023/07/19 03:59:14;;;;;;;;;;;;;;;;;;5010673;28;19925;-64
2023/07/19 04:01:40;;;;;;;;;;;;;;;;;;5013725;28;19921;-64
2023/07/19 04:04:06;;;;;;;;;;;;;;;;;;5015361;28;19921;-64
2023/07/19 04:06:32;;;;;;;;;;;;;;;;;;5015263;28;20560;-64
2023/07/19 04:08:58;;;;;;;;;;;;;;;;;;5015215;28;19928;-64
2023/07/19 04:11:24;;;;;;;;;;;;;;;;;;5014910;28;19922;-64
2023/07/19 04:13:50;;;;;;;;;;;;;;;;;;5015098;28;19921;-64
2023/07/19 04:16:16;;;;;;;;;;;;;;;;;;5015129;28;19928;-64
2023/07/19 04:18:42;;;;;;;;;;;;;;;;;;5014899;28;20296;-64
2023/07/19 04:21:09;;;;;;;;;;;;;;;;;;5014440;28;19928;-64
2023/07/19 04:23:35;;;;;;;;;;;;;;;;;;5032808;28;19920;-64
2023/07/19 04:26:01;;;;;;;;;;;;;;;;;;5034618;28;20240;-64
2023/07/19 04:28:27;;;;;;;;;;;;;;;;;;5034488;28;19932;-64
2023/07/19 04:30:53;;;;;;;;;;;;;;;;;;5034638;28;19980;-64
2023/07/19 04:33:19;;;;;;;;;;;;;;;;;;5033369;28;19925;-64
2023/07/19 04:35:47;;;;;;;;;;;;;;;;;;5034284;28;19921;-64
2023/07/19 04:38:13;;;;;;;;;;;;;;;;;;5034269;28;19929;-64
2023/07/19 04:40:38;;;;;;;;;;;;;;;;;;5032795;28;20762;-64
2023/07/19 04:43:05;;;;;;;;;;;;;;;;;;5034252;28;19924;-64
2023/07/19 04:45:31;;;;;;;;;;;;;;;;;;5034387;28;20338;-64
2023/07/19 04:47:57;;;;;;;;;;;;;;;;;;5032970;28;19964;-64
2023/07/19 04:50:24;;;;;;;;;;;;;;;;;;5034187;28;19924;-64
2023/07/19 04:52:50;;;;;;;;;;;;;;;;;;5034120;28;19933;-64
2023/07/19 04:55:16;;;;;;;;;;;;;;;;;;5033995;28;19925;-64
2023/07/19 04:57:42;;;;;;;;;;;;;;;;;;5032595;28;19975;-64
2023/07/19 05:00:11;;;;;;;;;;;;;;;;;;5033962;28;19922;-64
2023/07/19 05:02:37;;;;;;;;;;;;;;;;;;5033999;28;19971;-64
2023/07/19 05:05:03;;;;;;;;;;;;;;;;;;5033881;28;19925;-64
2023/07/19 05:07:29;;;;;;;;;;;;;;;;;;5033694;28;20410;-64
2023/07/19 05:09:55;;;;;;;;;;;;;;;;;;5033790;28;19928;-64
2023/07/19 05:12:20;;;;;;;;;;;;;;;;;;5032059;28;19921;-64
2023/07/19 05:14:47;;;;;;;;;;;;;;;;;;5032822;28;20405;-64
2023/07/19 05:17:13;;;;;;;;;;;;;;;;;;5031886;28;19921;-64
2023/07/19 05:19:39;;;;;;;;;;;;;;;;;;5032860;28;19929;-64
2023/07/19 05:22:05;;;;;;;;;;;;;;;;;;5032741;28;20286;-64
2023/07/19 05:24:31;;;;;;;;;;;;;;;;;;5033353;28;19924;-64
2023/07/19 05:26:57;;;;;;;;;;;;;;;;;;5033303;28;20054;-64
2023/07/19 05:29:23;;;;;;;;;;;;;;;;;;5033320;28;19921;-64
2023/07/19 05:31:49;;;;;;;;;;;;;;;;;;5033354;28;19976;-64
2023/07/19 05:34:14;;;;;;;;;;;;;;;;;;5032089;28;19921;-64
2023/07/19 05:36:40;;;;;;;;;;;;;;;;;;5031583;28;19964;-64
2023/07/19 05:39:06;;;;;;;;;;;;;;;;;;5031870;28;19932;-64
2023/07/19 05:41:32;;;;;;;;;;;;;;;;;;5033295;28;19932;-64
2023/07/19 05:43:58;;;;;;;;;;;;;;;;;;5033310;28;20367;-64
2023/07/19 05:46:24;;;;;;;;;;;;;;;;;;5031654;28;19955;-64
2023/07/19 05:48:50;;;;;;;;;;;;;;;;;;5033119;28;20294;-64
2023/07/19 05:51:16;;;;;;;;;;;;;;;;;;5031457;28;20015;-63
2023/07/19 05:53:42;;;;;;;;;;;;;;;;;;5032951;28;19983;-64
2023/07/19 05:56:08;;;;;;;;;;;;;;;;;;5033093;28;19921;-64
2023/07/19 05:58:34;;;;;;;;;;;;;;;;;;5032890;28;19963;-64
2023/07/19 06:01:00;;;;;;;;;;;;;;;;;;5032803;28;19975;-64
2023/07/19 06:03:25;;;;;;;;;;;;;;;;;;5032675;28;19921;-64
2023/07/19 06:05:51;;;;;;;;;;;;;;;;;;5032730;28;19928;-64
2023/07/19 06:08:17;;;;;;;;;;;;;;;;;;5032558;28;20572;-64
2023/07/19 06:10:43;;;;;;;;;;;;;;;;;;5032475;28;20291;-65
2023/07/19 06:13:13;;;;;;;;;;;;;;;;;;5032495;28;19932;-64
2023/07/19 06:15:39;;;;;;;;;;;;;;;;;;5032532;28;19925;-64
2023/07/19 06:18:05;;;;;;;;;;;;;;;;;;5032429;28;19924;-64
2023/07/19 06:20:30;;;;;;;;;;;;;;;;;;5032325;28;19971;-64
2023/07/19 06:22:56;;;;;;;;;;;;;;;;;;5030876;28;19960;-64
2023/07/19 06:25:22;;;;;;;;;;;;;;;;;;5031642;28;19927;-64
2023/07/19 06:27:48;;;;;;;;;;;;;;;;;;5030901;28;19925;-64
2023/07/19 06:30:14;;;;;;;;;;;;;;;;;;5032368;28;19921;-64
2023/07/19 06:32:40;;;;;;;;;;;;;;;;;;5032288;28;20000;-64
2023/07/19 06:35:08;;;;;;;;;;;;;;;;;;5032191;28;20346;-64
2023/07/19 06:37:34;;;;;;;;;;;;;;;;;;5031842;28;19932;-64
2023/07/19 06:40:04;;;;;;;;;;;;;;;;;;5030729;28;19975;-64
2023/07/19 06:42:32;;;;;;;;;;;;;;;;;;5032094;28;19944;-64
2023/07/19 06:44:58;;;;;;;;;;;;;;;;;;5032266;28;19967;-64
2023/07/19 06:47:24;;;;;;;;;;;;;;;;;;5031801;28;19925;-64
2023/07/19 06:49:50;;;;;;;;;;;;;;;;;;5032038;28;19925;-64
2023/07/19 06:52:16;;;;;;;;;;;;;;;;;;5031141;22;19929;-64
2023/07/19 06:54:42;;;;;;;;;;;;;;;;;;5012761;28;19922;-64
2023/07/19 06:57:07;;;;;;;;;;;;;;;;;;5012607;28;20382;-64
2023/07/19 06:59:34;;;;;;;;;;;;;;;;;;5010774;28;19969;-64
2023/07/19 07:02:00;;;;;;;;;;;;;;;;;;5012698;28;20330;-64
2023/07/19 07:04:26;;;;;;;;;;;;;;;;;;5012252;28;19968;-64
2023/07/19 07:06:51;;;;;;;;;;;;;;;;;;5012033;28;19925;-64
2023/07/19 07:09:17;;;;;;;;;;;;;;;;;;5012495;28;20371;-64
2023/07/19 07:11:43;;;;;;;;;;;;;;;;;;5027402;28;19922;-64
2023/07/19 07:14:10;;;;;;;;;;;;;;;;;;5011986;28;20283;-64
2023/07/19 07:16:36;;;;;;;;;;;;;;;;;;5012256;28;19925;-64
2023/07/19 07:19:02;;;;;;;;;;;;;;;;;;5010626;28;20476;-64
2023/07/19 07:21:28;;;;;;;;;;;;;;;;;;5012142;28;19932;-64
2023/07/19 07:23:54;;;;;;;;;;;;;;;;;;5011974;28;19951;-65
2023/07/19 07:26:20;;;;;;;;;;;;;;;;;;5012351;28;19932;-64
2023/07/19 07:28:46;;;;;;;;;;;;;;;;;;5011959;28;19988;-64
2023/07/19 07:31:11;;;;;;;;;;;;;;;;;;5011977;28;20016;-64
2023/07/19 07:33:38;;;;;;;;;;;;;;;;;;5011880;28;19925;-64
2023/07/19 07:36:03;;;;;;;;;;;;;;;;;;5013623;28;19980;-64
2023/07/19 07:38:29;;;;;;;;;;;;;;;;;;5030839;28;19925;-65
2023/07/19 07:40:55;;;;;;;;;;;;;;;;;;5015987;28;19921;-64
2023/07/19 07:43:21;;;;;;;;;;;;;;;;;;5015625;28;19960;-64
2023/07/19 07:45:47;;;;;;;;;;;;;;;;;;5015757;28;19922;-64
2023/07/19 07:48:13;;;;;;;;;;;;;;;;;;5015368;28;19925;-65
2023/07/19 07:50:39;;;;;;;;;;;;;;;;;;5015530;28;19925;-64
2023/07/19 07:53:05;;;;;;;;;;;;;;;;;;5015337;28;20353;-64
2023/07/19 07:55:31;;;;;;;;;;;;;;;;;;5015601;28;19929;-65
2023/07/19 07:57:57;;;;;;;;;;;;;;;;;;5015600;28;19922;-65
2023/07/19 08:00:23;;;;;;;;;;;;;;;;;;5015430;28;19983;-65
2023/07/19 08:02:49;;;;;;;;;;;;;;;;;;5015040;28;20442;-64
2023/07/19 08:05:15;;;;;;;;;;;;;;;;;;5014230;28;19921;-64
2023/07/19 08:07:41;;;;;;;;;;;;;;;;;;5014745;28;19928;-65
2023/07/19 08:10:07;;;;;;;;;;;;;;;;;;5014709;28;19929;-65
2023/07/19 08:12:33;;;;;;;;;;;;;;;;;;5014512;28;19921;-65
2023/07/19 08:15:00;;;;;;;;;;;;;;;;;;5013997;28;20294;-64
2023/07/19 08:17:26;;;;;;;;;;;;;;;;;;5015117;28;20007;-64
2023/07/19 08:19:52;;;;;;;;;;;;;;;;;;5014757;28;19932;-64
2023/07/19 08:22:18;;;;;;;;;;;;;;;;;;5015175;28;19971;-64
2023/07/19 08:24:44;;;;;;;;;;;;;;;;;;5014927;28;20306;-64
2023/07/19 08:27:10;;;;;;;;;;;;;;;;;;5015015;28;19932;-64
2023/07/19 08:29:36;;;;;;;;;;;;;;;;;;5014824;28;20411;-64
2023/07/19 08:32:03;;;;;;;;;;;;;;;;;;5015027;28;20003;-64
2023/07/19 08:34:29;;;;;;;;;;;;;;;;;;5014459;28;20003;-65
2023/07/19 08:36:54;;;;;;;;;;;;;;;;;;5014174;28;20012;-64
2023/07/19 08:39:20;;;;;;;;;;;;;;;;;;5013908;28;19933;-64
2023/07/19 08:41:46;;;;;;;;;;;;;;;;;;5014479;28;20362;-66
2023/07/19 08:44:12;;;;;;;;;;;;;;;;;;5013914;28;19921;-64
2023/07/19 08:46:38;;;;;;;;;;;;;;;;;;5013762;28;19929;-64
2023/07/19 08:49:04;;;;;;;;;;;;;;;;;;5013039;28;19925;-64
2023/07/19 08:51:30;;;;;;;;;;;;;;;;;;5013592;28;20015;-64
2023/07/19 08:53:56;;;;;;;;;;;;;;;;;;5013720;28;20360;-64
2023/07/19 08:56:22;;;;;;;;;;;;;;;;;;5013512;28;19921;-64
2023/07/19 08:58:48;;;;;;;;;;;;;;;;;;5013236;28;19929;-64
2023/07/19 09:01:14;;;;;;;;;;;;;;;;;;5028383;28;19929;-64
2023/07/19 09:03:40;;;;;;;;;;;;;;;;;;5014065;28;19925;-64
2023/07/19 09:06:06;;;;;;;;;;;;;;;;;;5014408;28;19922;-64
2023/07/19 09:08:31;;;;;;;;;;;;;;;;;;5014602;28;19937;-65
2023/07/19 09:10:57;;;;;;;;;;;;;;;;;;5029265;28;19926;-64
2023/07/19 09:13:23;;;;;;;;;;;;;;;;;;5012630;28;19922;-64
2023/07/19 09:15:49;;;;;;;;;;;;;;;;;;5013816;28;19922;-64
2023/07/19 09:18:15;;;;;;;;;;;;;;;;;;5014122;28;19925;-64
2023/07/19 09:20:42;;;;;;;;;;;;;;;;;;5014161;28;19969;-64
2023/07/19 09:23:08;;;;;;;;;;;;;;;;;;5029268;28;19921;-64
2023/07/19 09:25:34;;;;;;;;;;;;;;;;;;5013700;28;19926;-64
2023/07/19 09:28:00;;;;;;;;;;;;;;;;;;5013863;28;20127;-64
2023/07/19 09:30:26;;;;;;;;;;;;;;;;;;5013612;28;19921;-65
2023/07/19 09:32:52;;;;;;;;;;;;;;;;;;5013969;28;19925;-64
2023/07/19 09:35:18;;;;;;;;;;;;;;;;;;5013811;28;19976;-64
2023/07/19 09:37:44;;;;;;;;;;;;;;;;;;5013872;28;19922;-64
2023/07/19 09:40:10;;;;;;;;;;;;;;;;;;5013554;28;19930;-64
2023/07/19 09:42:39;;;;;;;;;;;;;;;;;;5013510;28;20294;-64
2023/07/19 09:45:06;;;;;;;;;;;;;;;;;;5013543;28;20279;-64
2023/07/19 09:47:32;;;;;;;;;;;;;;;;;;5013341;28;20405;-64
2023/07/19 09:49:59;;;;;;;;;;;;;;;;;;5013546;28;19925;-64
2023/07/19 09:52:25;;;;;;;;;;;;;;;;;;5013329;28;19925;-64
2023/07/19 09:54:51;;;;;;;;;;;;;;;;;;5013564;28;20417;-65
2023/07/19 09:57:17;;;;;;;;;;;;;;;;;;5013370;28;19928;-64
2023/07/19 09:59:43;;;;;;;;;;;;;;;;;;5012942;28;19929;-65
2023/07/19 10:02:09;;;;;;;;;;;;;;;;;;5013026;28;19921;-64
2023/07/19 10:04:37;;;;;;;;;;;;;;;;;;5012902;28;19932;-64
2023/07/19 10:07:03;;;;;;;;;;;;;;;;;;5012243;28;19972;-64
2023/07/19 10:09:29;;;;;;;;;;;;;;;;;;5012523;28;19992;-65
2023/07/19 10:11:55;;;;;;;;;;;;;;;;;;5012457;28;20379;-64
2023/07/19 10:14:26;;;;;;;;;;;;;;;;;;5012187;28;19926;-64
2023/07/19 10:16:51;;;;;;;;;;;;;;;;;;5012519;28;19922;-64
2023/07/19 10:19:17;;;;;;;;;;;;;;;;;;5012856;28;19999;-64
2023/07/19 10:21:43;;;;;;;;;;;;;;;;;;5012864;28;19928;-64
2023/07/19 10:24:09;;;;;;;;;;;;;;;;;;5012772;28;19921;-64
2023/07/19 10:26:35;;;;;;;;;;;;;;;;;;5012696;28;20410;-64
2023/07/19 10:29:01;;;;;;;;;;;;;;;;;;5012746;28;19925;-64
2023/07/19 10:31:27;;;;;;;;;;;;;;;;;;5012622;28;19929;-64
2023/07/19 10:33:53;;;;;;;;;;;;;;;;;;5012599;28;19969;-64
2023/07/19 10:36:19;;;;;;;;;;;;;;;;;;5011796;28;19979;-64
2023/07/19 10:38:45;;;;;;;;;;;;;;;;;;5012456;28;19929;-64
2023/07/19 10:41:12;;;;;;;;;;;;;;;;;;5012300;28;19921;-64
2023/07/19 10:43:38;;;;;;;;;;;;;;;;;;5011325;28;19925;-65
2023/07/19 10:46:04;;;;;;;;;;;;;;;;;;5012421;28;19944;-64
2023/07/19 10:48:30;;;;;;;;;;;;;;;;;;5010897;28;20023;-64
2023/07/19 10:50:56;;;;;;;;;;;;;;;;;;5012498;28;19921;-65
2023/07/19 10:53:22;;;;;;;;;;;;;;;;;;5012153;28;20367;-64
2023/07/19 10:55:48;;;;;;;;;;;;;;;;;;5012358;28;19922;-64
2023/07/19 10:58:14;;;;;;;;;;;;;;;;;;5012202;28;20515;-64
2023/07/19 11:00:43;;;;;;;;;;;;;;;;;;5012127;28;19977;-64
2023/07/19 11:03:09;;;;;;;;;;;;;;;;;;5012169;28;19972;-64
2023/07/19 11:05:35;;;;;;;;;;;;;;;;;;5012165;28;20334;-64
2023/07/19 11:08:01;;;;;;;;;;;;;;;;;;5011977;28;19932;-64
2023/07/19 11:10:26;;;;;;;;;;;;;;;;;;5011616;28;19956;-64
2023/07/19 11:12:52;;;;;;;;;;;;;;;;;;5012118;28;20405;-64
2023/07/19 11:15:18;;;;;;;;;;;;;;;;;;5012309;28;19928;-64
2023/07/19 11:17:44;;;;;;;;;;;;;;;;;;5012144;28;20264;-64
2023/07/19 11:20:10;;;;;;;;;;;;;;;;;;5012016;28;19969;-64
2023/07/19 11:22:36;;;;;;;;;;;;;;;;;;5011960;28;19925;-64
2023/07/19 11:25:02;;;;;;;;;;;;;;;;;;5010828;28;20298;-64
2023/07/19 11:27:28;;;;;;;;;;;;;;;;;;5012115;28;19921;-64
2023/07/19 11:29:54;;;;;;;;;;;;;;;;;;5012257;28;19921;-64
2023/07/19 11:32:20;;;;;;;;;;;;;;;;;;5012111;28;20405;-64
2023/07/19 11:34:46;;;;;;;;;;;;;;;;;;5012081;28;19922;-64
2023/07/19 11:37:12;;;;;;;;;;;;;;;;;;5011800;28;19933;-64
2023/07/19 11:39:38;;;;;;;;;;;;;;;;;;5011737;28;19929;-65
2023/07/19 11:42:05;;;;;;;;;;;;;;;;;;5012065;28;20268;-64
2023/07/19 11:44:31;;;;;;;;;;;;;;;;;;5011991;28;20291;-64
2023/07/19 11:46:57;;;;;;;;;;;;;;;;;;5012069;28;19925;-64
2023/07/19 11:49:23;;;;;;;;;;;;;;;;;;5010351;28;19922;-64
2023/07/19 11:51:49;;;;;;;;;;;;;;;;;;5011642;28;19925;-64
2023/07/19 11:54:16;;;;;;;;;;;;;;;;;;5011647;28;20336;-65
2023/07/19 11:56:41;;;;;;;;;;;;;;;;;;5011982;28;19928;-64
2023/07/19 11:59:07;;;;;;;;;;;;;;;;;;5011380;28;19926;-64
2023/07/19 12:01:33;;;;;;;;;;;;;;;;;;5011717;28;19933;-64
2023/07/19 12:04:01;;;;;;;;;;;;;;;;;;5011636;28;19944;-64
2023/07/19 12:06:27;;;;;;;;;;;;;;;;;;5011293;28;19925;-64
2023/07/19 12:08:53;;;;;;;;;;;;;;;;;;5009267;28;19968;-64
2023/07/19 12:11:19;;;;;;;;;;;;;;;;;;5011218;28;20326;-65
2023/07/19 12:13:45;;;;;;;;;;;;;;;;;;5010798;28;19925;-65
2023/07/19 12:16:11;;;;;;;;;;;;;;;;;;5010846;28;19961;-64
2023/07/19 12:18:37;;;;;;;;;;;;;;;;;;5011091;28;19921;-64
2023/07/19 12:21:06;;;;;;;;;;;;;;;;;;5011540;28;19931;-64
2023/07/19 12:23:32;;;;;;;;;;;;;;;;;;5012035;28;19983;-64
2023/07/19 12:25:58;;;;;;;;;;;;;;;;;;5014962;28;19928;-64
2023/07/19 12:28:24;;;;;;;;;;;;;;;;;;5013611;28;19922;-64
2023/07/19 12:30:50;;;;;;;;;;;;;;;;;;5013650;28;19926;-64
2023/07/19 12:33:16;;;;;;;;;;;;;;;;;;5014907;28;19932;-64
2023/07/19 12:35:43;;;;;;;;;;;;;;;;;;5014872;28;19983;-64
2023/07/19 12:38:08;;;;;;;;;;;;;;;;;;5014568;28;19929;-64
2023/07/19 12:40:34;;;;;;;;;;;;;;;;;;5014809;28;19925;-64
2023/07/19 12:43:00;;;;;;;;;;;;;;;;;;5014641;28;19972;-64
2023/07/19 12:45:27;;;;;;;;;;;;;;;;;;5014559;28;19922;-64
2023/07/19 12:47:53;;;;;;;;;;;;;;;;;;5014709;28;20445;-64
2023/07/19 12:50:19;;;;;;;;;;;;;;;;;;5013130;28;19921;-64
2023/07/19 12:52:44;;;;;;;;;;;;;;;;;;5014393;28;19929;-64
2023/07/19 12:55:10;;;;;;;;;;;;;;;;;;5014483;28;19976;-64
2023/07/19 12:57:36;;;;;;;;;;;;;;;;;;5014609;28;19926;-64
2023/07/19 13:00:04;;;;;;;;;;;;;;;;;;5014209;28;20378;-64
2023/07/19 13:02:30;;;;;;;;;;;;;;;;;;5014428;28;20020;-64
2023/07/19 13:04:57;;;;;;;;;;;;;;;;;;5014274;28;20012;-64
2023/07/19 13:07:22;;;;;;;;;;;;;;;;;;5014159;28;19988;-64
2023/07/19 13:09:48;;;;;;;;;;;;;;;;;;5014173;28;19922;-64
2023/07/19 13:12:15;;;;;;;;;;;;;;;;;;5014210;28;19928;-64
2023/07/19 13:14:41;;;;;;;;;;;;;;;;;;5014063;28;19956;-64
2023/07/19 13:17:09;;;;;;;;;;;;;;;;;;5012640;28;20299;-64
2023/07/19 13:19:35;;;;;;;;;;;;;;;;;;5013937;28;19932;-64
2023/07/19 13:22:01;;;;;;;;;;;;;;;;;;5014180;28;20531;-64
2023/07/19 13:24:27;;;;;;;;;;;;;;;;;;5013640;28;19921;-64
2023/07/19 13:26:53;;;;;;;;;;;;;;;;;;5029186;28;19925;-64
2023/07/19 13:29:19;;;;;;;;;;;;;;;;;;5013801;28;19925;-64
2023/07/19 13:31:45;;;;;;;;;;;;;;;;;;5013892;28;19944;-64
2023/07/19 13:34:11;;;;;;;;;;;;;;;;;;5013391;28;19929;-64
2023/07/19 13:36:37;;;;;;;;;;;;;;;;;;5013630;28;19925;-64
2023/07/19 13:39:02;;;;;;;;;;;;;;;;;;5012242;28;19949;-64
2023/07/19 13:41:28;;;;;;;;;;;;;;;;;;5013611;28;19921;-64
2023/07/19 13:43:54;;;;;;;;;;;;;;;;;;5012268;28;20348;-64
2023/07/19 13:46:21;;;;;;;;;;;;;;;;;;5013497;28;19929;-64
2023/07/19 13:48:47;;;;;;;;;;;;;;;;;;5013461;28;19929;-65
2023/07/19 13:51:13;;;;;;;;;;;;;;;;;;5011928;28;19926;-65
2023/07/19 13:53:39;;;;;;;;;;;;;;;;;;5013542;28;19922;-65
2023/07/19 13:56:06;;;;;;;;;;;;;;;;;;5013267;28;19995;-64
2023/07/19 13:58:32;;;;;;;;;;;;;;;;;;5013278;28;19929;-65
2023/07/19 14:00:57;;;;;;;;;;;;;;;;;;5013037;28;20403;-65
2023/07/19 14:03:23;;;;;;;;;;;;;;;;;;5013163;28;20016;-64
2023/07/19 14:05:50;;;;;;;;;;;;;;;;;;5013281;28;19975;-64
2023/07/19 14:08:16;;;;;;;;;;;;;;;;;;5013029;28;19925;-64
2023/07/19 14:10:41;;;;;;;;;;;;;;;;;;5012231;28;19921;-65
2023/07/19 14:13:07;;;;;;;;;;;;;;;;;;5012258;28;19995;-65
2023/07/19 14:15:33;;;;;;;;;;;;;;;;;;5012151;28;19921;-64
2023/07/19 14:17:59;;;;;;;;;;;;;;;;;;5012245;28;19925;-65
2023/07/19 14:20:25;;;;;;;;;;;;;;;;;;5010786;28;19977;-65
2023/07/19 14:22:51;;;;;;;;;;;;;;;;;;5012480;28;19932;-64
2023/07/19 14:25:17;;;;;;;;;;;;;;;;;;5027090;28;19976;-65
2023/07/19 14:27:43;;;;;;;;;;;;;;;;;;5010552;28;19926;-64
2023/07/19 14:30:09;;;;;;;;;;;;;;;;;;5011612;28;20020;-64
2023/07/19 14:32:35;;;;;;;;;;;;;;;;;;5010414;28;19925;-64
2023/07/19 14:35:01;;;;;;;;;;;;;;;;;;5012032;28;19972;-64
2023/07/19 14:37:27;;;;;;;;;;;;;;;;;;5011484;28;19948;-64
2023/07/19 14:39:52;;;;;;;;;;;;;;;;;;5011923;28;19975;-64
2023/07/19 14:42:18;;;;;;;;;;;;;;;;;;5010616;28;19922;-64
2023/07/19 14:44:44;;;;;;;;;;;;;;;;;;5011067;28;19968;-64
2023/07/19 14:47:10;;;;;;;;;;;;;;;;;;5011850;28;20015;-65
2023/07/19 14:49:36;;;;;;;;;;;;;;;;;;5011010;28;19928;-64
2023/07/19 14:52:02;;;;;;;;;;;;;;;;;;5010776;28;19968;-64
2023/07/19 14:54:28;;;;;;;;;;;;;;;;;;5012404;28;19984;-64
2023/07/19 14:56:56;;;;;;;;;;;;;;;;;;5012285;28;19933;-64
2023/07/19 14:59:22;;;;;;;;;;;;;;;;;;5012258;28;19930;-64
2023/07/19 15:01:50;;;;;;;;;;;;;;;;;;5012138;28;19928;-64
2023/07/19 15:04:16;;;;;;;;;;;;;;;;;;5012461;28;19921;-65
2023/07/19 15:06:43;;;;;;;;;;;;;;;;;;5012236;28;19929;-64
2023/07/19 15:09:09;;;;;;;;;;;;;;;;;;5012162;28;20275;-64
2023/07/19 15:11:35;;;;;;;;;;;;;;;;;;5011903;28;19928;-65
2023/07/19 15:14:01;;;;;;;;;;;;;;;;;;5011891;28;19929;-64
2023/07/19 15:16:29;;;;;;;;;;;;;;;;;;5011908;28;20544;-65
2023/07/19 15:18:54;;;;;;;;;;;;;;;;;;5012068;28;19931;-64
2023/07/19 15:21:20;;;;;;;;;;;;;;;;;;5010579;28;20028;-64
2023/07/19 15:23:46;;;;;;;;;;;;;;;;;;5011830;28;19926;-64
2023/07/19 15:26:12;;;;;;;;;;;;;;;;;;5027010;28;19921;-64
2023/07/19 15:28:38;;;;;;;;;;;;;;;;;;5011908;28;19928;-64
2023/07/19 15:31:04;;;;;;;;;;;;;;;;;;5011991;28;19948;-64
2023/07/19 15:33:30;;;;;;;;;;;;;;;;;;5011841;28;19921;-64
2023/07/19 15:35:59;;;;;;;;;;;;;;;;;;5011747;28;19922;-64
2023/07/19 15:38:25;;;;;;;;;;;;;;;;;;5011590;28;19921;-64
2023/07/19 15:40:52;;;;;;;;;;;;;;;;;;5011539;28;20488;-64
2023/07/19 15:43:18;;;;;;;;;;;;;;;;;;5011484;28;19922;-64
2023/07/19 15:45:43;;;;;;;;;;;;;;;;;;5011814;28;20644;-64
2023/07/19 15:48:09;;;;;;;;;;;;;;;;;;5011606;28;19929;-64
2023/07/19 15:50:37;;;;;;;;;;;;;;;;;;5011687;28;19984;-64
2023/07/19 15:53:03;;;;;;;;;;;;;;;;;;5011632;28;19930;-64
2023/07/19 15:55:29;;;;;;;;;;;;;;;;;;5011751;28;19922;-64
2023/07/19 15:57:55;;;;;;;;;;;;;;;;;;5014455;28;20287;-64
2023/07/19 16:00:20;;;;;;;;;;;;;;;;;;5015425;28;19926;-64
2023/07/19 16:02:46;;;;;;;;;;;;;;;;;;5015048;28;19925;-65
2023/07/19 16:05:12;;;;;;;;;;;;;;;;;;5030302;28;20056;-64
2023/07/19 16:07:38;;;;;;;;;;;;;;;;;;5015117;28;19928;-64
2023/07/19 16:10:04;;;;;;;;;;;;;;;;;;5014838;28;19928;-64
2023/07/19 16:12:30;;;;;;;;;;;;;;;;;;5014043;28;19925;-64
2023/07/19 16:14:56;;;;;;;;;;;;;;;;;;5014271;28;19921;-65
2023/07/19 16:17:22;;;;;;;;;;;;;;;;;;5013071;28;19921;-64
2023/07/19 16:19:48;;;;;;;;;;;;;;;;;;5014259;28;19930;-64
2023/07/19 16:22:14;;;;;;;;;;;;;;;;;;5014261;28;20429;-64
2023/07/19 16:24:39;;;;;;;;;;;;;;;;;;5014760;28;20319;-64
2023/07/19 16:27:05;;;;;;;;;;;;;;;;;;5014534;28;19968;-64
2023/07/19 16:29:32;;;;;;;;;;;;;;;;;;5014984;28;19979;-64
2023/07/19 16:31:58;;;;;;;;;;;;;;;;;;5014934;28;20012;-64
2023/07/19 16:34:23;;;;;;;;;;;;;;;;;;5013236;28;19996;-64
2023/07/19 16:36:49;;;;;;;;;;;;;;;;;;5014694;28;20264;-64